Time;durP1;ratioP1;P1;durP2;ratioP2;P2;SDS_P1;SDS_P2;PMS_P1;PMS_P2;Temp;Humidity;BMP_temperature;BMP_pressure;BME280_temperature;BME280_humidity;BME280_pressure;Samples;Min_cycle;Max_cycle;Signal;HPM_P1;HPM_P2
2021/03/13 00:00:28;;;;;;;1.98;1.50;;;6.10;90.10;;;5.12;75.75;97761.31;5099314;28;20727;-78
2021/03/13 00:02:55;;;;;;;5.38;2.20;;;6.20;89.20;;;5.09;75.73;97766.19;5100280;28;20401;-79
2021/03/13 00:05:24;;;;;;;3.33;1.95;;;6.10;89.00;;;5.08;75.34;97770.63;5100214;28;20409;-78
2021/03/13 00:07:52;;;;;;;3.72;1.90;;;6.20;88.60;;;5.19;75.14;97782.31;5097761;28;20436;-78
2021/03/13 00:10:19;;;;;;;4.28;1.88;;;6.30;88.40;;;5.37;75.64;97788.47;5099640;28;20452;-78
2021/03/13 00:12:45;;;;;;;5.93;1.80;;;6.40;89.30;;;5.34;74.64;97788.88;5099890;28;20405;-78
2021/03/13 00:15:14;;;;;;;5.05;1.88;;;6.40;88.00;;;5.42;75.09;97785.22;5099718;28;20759;-78
2021/03/13 00:17:42;;;;;;;4.07;1.42;;;6.50;88.50;;;5.48;75.07;97783.59;5099212;28;20398;-78
2021/03/13 00:20:11;;;;;;;3.20;1.60;;;6.50;88.40;;;5.44;75.45;97784.00;5099402;28;20424;-78
2021/03/13 00:22:37;;;;;;;4.82;1.50;;;6.50;88.50;;;5.50;76.01;97771.88;5098270;28;20418;-77
2021/03/13 00:25:10;;;;;;;2.58;1.60;;;6.50;89.20;;;5.44;75.76;97770.06;5099183;28;20731;-78
2021/03/13 00:27:45;;;;;;;4.90;1.77;;;6.50;88.80;;;5.49;75.90;97770.25;5099689;28;20416;-78
2021/03/13 00:30:17;;;;;;;4.25;1.55;;;6.50;89.40;;;5.47;75.93;97774.13;5102393;28;20421;-77
2021/03/13 00:32:45;;;;;;;4.05;1.65;;;6.50;89.10;;;5.47;75.99;97779.38;5099489;28;20596;-78
2021/03/13 00:35:12;;;;;;;3.53;1.53;;;6.50;89.10;;;5.44;76.06;97773.50;5099604;28;20429;-78
2021/03/13 00:37:39;;;;;;;4.68;1.90;;;6.50;89.20;;;5.40;76.09;97761.03;5082663;28;20428;-78
2021/03/13 00:40:10;;;;;;;3.25;1.70;;;6.50;89.10;;;5.49;75.88;97762.38;5099976;28;20685;-78
2021/03/13 00:42:37;;;;;;;3.87;1.57;;;6.50;89.30;;;5.44;74.84;97762.19;5099363;28;20800;-78
2021/03/13 00:45:08;;;;;;;3.75;1.50;;;6.50;88.10;;;5.47;74.93;97758.38;5099613;28;20413;-78
2021/03/13 00:47:34;;;;;;;3.25;1.70;;;6.50;88.10;;;5.55;75.13;97742.38;5098528;28;20420;-78
2021/03/13 00:50:00;;;;;;;3.50;1.80;;;6.50;88.80;;;5.52;74.08;97737.53;5099849;28;20422;-78
2021/03/13 00:52:26;;;;;;;2.83;1.50;;;6.60;87.20;;;5.57;73.82;97740.31;5098636;28;20792;-77
2021/03/13 00:54:55;;;;;;;2.00;1.33;;;6.60;86.80;;;5.60;73.39;97730.22;5100127;28;20402;-78
2021/03/13 00:57:22;;;;;;;2.33;1.55;;;6.70;86.30;;;5.66;72.63;97729.38;5101765;28;20814;-78
2021/03/13 00:59:48;;;;;;;2.95;1.38;;;6.70;85.60;;;5.87;73.28;97735.28;5096081;28;20455;-77
2021/03/13 01:02:16;;;;;;;2.58;1.88;;;6.80;86.30;;;5.84;72.77;97747.84;5097005;28;20450;-78
2021/03/13 01:04:42;;;;;;;2.20;1.40;;;6.90;85.70;;;5.75;73.54;97748.31;5097844;28;20721;-78
2021/03/13 01:07:08;;;;;;;2.22;1.40;;;6.80;86.40;;;5.55;74.69;97755.50;5096665;28;20505;-77
2021/03/13 01:09:36;;;;;;;3.13;1.42;;;6.70;87.00;;;5.56;75.29;97750.03;5095821;28;20426;-78
2021/03/13 01:12:04;;;;;;;2.53;1.50;;;6.60;88.30;;;5.44;75.15;97726.25;5102461;28;20421;-78
2021/03/13 01:14:32;;;;;;;2.38;1.35;;;6.50;88.40;;;5.40;75.68;97703.28;5099931;28;20424;-78
2021/03/13 01:16:58;;;;;;;3.78;1.38;;;6.50;88.70;;;5.33;75.42;97690.19;5098638;28;20589;-78
2021/03/13 01:19:24;;;;;;;2.28;1.35;;;6.40;88.70;;;5.26;75.91;97692.00;5098603;28;20575;-78
2021/03/13 01:21:50;;;;;;;2.75;1.40;;;6.40;88.80;;;5.34;75.83;97688.34;5097696;28;20537;-78
2021/03/13 01:24:16;;;;;;;3.67;1.33;;;6.40;89.20;;;5.43;75.36;97687.88;5097554;28;20402;-78
2021/03/13 01:26:42;;;;;;;1.73;1.20;;;6.40;88.40;;;5.24;75.18;97677.50;5097355;28;20409;-78
2021/03/13 01:29:09;;;;;;;2.42;1.40;;;6.40;87.90;;;5.34;75.00;97675.22;5096962;28;20461;-78
2021/03/13 01:31:36;;;;;;;2.60;1.23;;;6.30;88.60;;;5.37;73.89;97675.59;5098253;28;20417;-78
2021/03/13 01:34:02;;;;;;;1.95;1.30;;;6.40;87.00;;;5.36;74.09;97681.06;5099816;28;20537;-78
2021/03/13 01:36:28;;;;;;;2.20;1.25;;;6.40;87.00;;;5.30;74.58;97658.28;5104921;28;20757;-78
2021/03/13 01:38:54;;;;;;;2.50;1.25;;;6.40;87.30;;;5.24;75.39;97664.38;5104198;28;20433;-79
2021/03/13 01:41:21;;;;;;;2.40;1.38;;;6.30;88.20;;;5.14;75.39;97656.97;5104607;28;20688;-78
2021/03/13 01:43:47;;;;;;;2.43;1.50;;;6.30;88.20;;;5.09;75.57;97662.03;5081073;28;20859;-78
2021/03/13 01:46:14;;;;;;;2.40;1.35;;;6.20;88.30;;;5.04;75.87;97660.03;5098496;28;20402;-78
2021/03/13 01:48:47;;;;;;;2.60;1.30;;;6.10;88.50;;;5.00;75.56;97656.22;5099513;28;20414;-78
2021/03/13 01:51:13;;;;;;;2.63;1.30;;;6.10;89.40;;;4.91;76.35;97644.34;5098646;28;20469;-78
2021/03/13 01:53:39;;;;;;;1.65;1.23;;;6.00;89.30;;;4.86;76.79;97627.63;5099083;28;20448;-78
2021/03/13 01:56:09;;;;;;;4.30;1.40;;;5.90;89.50;;;4.84;77.09;97633.09;5099420;28;20409;-78
2021/03/13 01:58:35;;;;;;;5.90;2.92;;;5.90;90.00;;;4.83;77.08;97623.59;5104571;28;20525;-78
2021/03/13 02:01:01;;;;;;;2.83;1.50;;;5.90;90.10;;;4.93;77.18;97623.97;5106742;28;20445;-78
2021/03/13 02:03:27;;;;;;;2.40;1.40;;;6.00;90.20;;;4.84;77.09;97614.72;5105385;28;20414;-78
2021/03/13 02:05:54;;;;;;;1.77;1.30;;;5.90;90.00;;;4.85;77.34;97605.84;5107616;28;20402;-78
2021/03/13 02:08:33;;;;;;;3.17;1.20;;;5.90;90.30;;;4.80;77.63;97610.13;5090056;28;20426;-78
2021/03/13 02:11:10;;;;;;;1.83;1.50;;;5.90;90.30;;;4.80;78.08;97603.06;5107644;28;20516;-78
2021/03/13 02:13:47;;;;;;;3.58;1.58;;;5.90;90.50;;;4.78;77.94;97599.03;5108711;28;20410;-78
2021/03/13 02:16:25;;;;;;;3.63;1.40;;;5.90;90.50;;;4.77;78.12;97585.09;5109245;28;20402;-78
2021/03/13 02:19:08;;;;;;;2.38;1.45;;;5.90;90.50;;;4.79;78.06;97579.66;5104777;28;20413;-78
2021/03/13 02:21:41;;;;;;;2.33;1.50;;;5.90;90.60;;;4.79;77.88;97583.09;5095694;28;20860;-78
2021/03/13 02:24:52;;;;;;;4.13;1.70;;;5.90;90.60;;;4.92;78.06;97585.63;5086240;28;20418;-78
2021/03/13 02:27:22;;;;;;;6.03;2.00;;;5.90;90.70;;;4.87;78.12;97576.78;5086399;28;20415;-78
2021/03/13 02:29:52;;;;;;;3.55;1.60;;;6.00;90.60;;;4.85;78.19;97581.44;5085287;28;20420;-78
2021/03/13 02:32:27;;;;;;;5.55;1.63;;;5.90;90.70;;;5.06;77.95;97581.13;5078483;28;20824;-78
2021/03/13 02:35:00;;;;;;;3.50;1.73;;;6.00;90.90;;;5.03;77.59;97577.09;5077769;28;20403;-78
2021/03/13 02:37:33;;;;;;;5.90;2.05;;;6.10;90.40;;;4.99;77.63;97569.84;5080182;28;20412;-78
2021/03/13 02:40:05;;;;;;;6.00;1.80;;;6.10;90.40;;;4.93;77.62;97576.75;5074555;28;20447;-78
2021/03/13 02:42:38;;;;;;;4.10;2.00;;;6.00;90.40;;;4.91;77.92;97577.97;5076016;28;20454;-78
2021/03/13 02:45:08;;;;;;;2.50;1.73;;;6.00;90.80;;;4.90;77.66;97568.47;5075396;28;20404;-78
2021/03/13 02:47:38;;;;;;;5.68;2.20;;;6.00;90.40;;;4.88;77.82;97560.84;5075990;28;20415;-78
2021/03/13 02:50:08;;;;;;;5.32;2.40;;;6.00;90.50;;;4.92;77.54;97562.03;5074727;28;20412;-78
2021/03/13 02:52:36;;;;;;;10.20;2.10;;;6.00;90.40;;;4.94;77.25;97554.75;5075110;28;20412;-78
2021/03/13 02:55:06;;;;;;;4.63;2.15;;;6.00;90.20;;;4.96;77.06;97551.94;5074557;28;20797;-78
2021/03/13 02:57:33;;;;;;;5.25;1.80;;;6.00;90.10;;;5.01;76.79;97560.78;5074510;28;20476;-77
2021/03/13 03:00:01;;;;;;;5.80;2.00;;;6.10;90.00;;;5.03;76.44;97552.69;5073944;28;20411;-77
2021/03/13 03:02:28;;;;;;;5.05;2.10;;;6.10;89.60;;;5.09;76.40;97540.53;5074441;28;20821;-78
2021/03/13 03:04:56;;;;;;;7.30;2.70;;;6.10;89.40;;;5.10;76.03;97542.16;5074092;28;20483;-78
2021/03/13 03:07:26;;;;;;;5.15;1.73;;;6.20;89.20;;;5.14;76.00;97541.50;5074208;28;20412;-78
2021/03/13 03:09:54;;;;;;;6.22;2.17;;;6.20;89.10;;;5.13;75.80;97544.34;5072465;28;20495;-78
2021/03/13 03:12:22;;;;;;;5.38;1.60;;;6.20;89.10;;;5.18;75.37;97542.69;5073329;28;20438;-78
2021/03/13 03:14:48;;;;;;;7.03;2.03;;;6.20;88.50;;;5.25;74.89;97540.84;5074150;28;20415;-78
2021/03/13 03:17:15;;;;;;;6.25;1.67;;;6.30;88.20;;;5.36;74.23;97531.44;5074695;28;20515;-77
2021/03/13 03:19:44;;;;;;;6.18;2.00;;;6.40;87.30;;;5.40;74.52;97543.16;5075542;28;20408;-77
2021/03/13 03:22:10;;;;;;;5.40;1.80;;;6.40;87.50;;;5.42;74.22;97533.22;5083202;28;20429;-77
2021/03/13 03:24:36;;;;;;;6.63;1.93;;;6.50;87.50;;;5.47;74.52;97532.59;5094555;28;20784;-77
2021/03/13 03:27:05;;;;;;;8.80;2.27;;;6.50;87.40;;;5.49;74.22;97523.47;5094700;28;20489;-78
2021/03/13 03:29:32;;;;;;;6.55;1.98;;;6.60;87.20;;;5.59;73.85;97525.59;5094648;28;20429;-79
2021/03/13 03:31:59;;;;;;;7.57;2.22;;;6.60;86.70;;;5.61;73.81;97511.25;5095381;28;20513;-78
2021/03/13 03:34:25;;;;;;;6.45;2.03;;;6.70;86.60;;;5.68;73.53;97517.25;5096214;28;20416;-79
2021/03/13 03:36:52;;;;;;;5.97;2.05;;;6.70;86.50;;;5.79;72.92;97518.34;5096194;28;20410;-79
2021/03/13 03:39:19;;;;;;;5.75;1.80;;;6.80;85.90;;;5.87;72.53;97517.25;5095611;28;20680;-79
2021/03/13 03:41:52;;;;;;;5.65;1.83;;;6.90;85.40;;;5.91;72.41;97519.28;5096495;28;20410;-79
2021/03/13 03:44:24;;;;;;;6.88;1.90;;;6.90;85.20;;;5.91;72.47;97519.28;5095978;28;20449;-79
2021/03/13 03:46:55;;;;;;;6.68;1.98;;;6.90;85.10;;;5.90;72.58;97515.03;5095978;28;20416;-79
2021/03/13 03:49:23;;;;;;;10.30;2.50;;;7.00;85.30;;;5.91;72.63;97506.13;5094748;28;20606;-79
2021/03/13 03:51:50;;;;;;;6.18;1.90;;;7.00;85.20;;;5.88;72.53;97506.56;5094287;28;20418;-78
2021/03/13 03:54:19;;;;;;;7.53;2.40;;;7.00;85.30;;;5.91;72.51;97507.97;5095141;28;20634;-79
2021/03/13 03:56:46;;;;;;;4.90;1.67;;;6.90;85.80;;;5.92;72.21;97505.13;5095610;28;20410;-78
2021/03/13 03:59:17;;;;;;;7.40;1.98;;;6.90;85.00;;;5.91;72.63;97502.72;5077214;28;20417;-78
2021/03/13 04:01:48;;;;;;;5.57;2.05;;;7.00;85.30;;;6.05;72.14;97507.59;5077356;28;20420;-78
2021/03/13 04:04:15;;;;;;;6.03;1.83;;;7.00;84.90;;;5.95;72.25;97506.50;5096396;28;20501;-78
2021/03/13 04:06:42;;;;;;;8.20;2.07;;;7.00;84.90;;;6.03;71.84;97503.56;5096938;28;20402;-78
2021/03/13 04:09:09;;;;;;;4.38;2.10;;;7.00;84.60;;;6.03;71.96;97491.25;5099323;28;20487;-78
2021/03/13 04:11:38;;;;;;;8.65;2.10;;;7.10;84.80;;;6.13;71.97;97490.75;5099459;28;20417;-78
2021/03/13 04:14:07;;;;;;;5.28;2.00;;;7.10;84.80;;;6.18;71.48;97496.94;5099156;28;20402;-78
2021/03/13 04:16:34;;;;;;;4.82;2.28;;;7.20;84.50;;;6.11;71.91;97496.22;5099979;28;20812;-78
2021/03/13 04:19:02;;;;;;;7.37;1.80;;;7.20;84.30;;;6.23;72.29;97498.91;5082412;28;20486;-78
2021/03/13 04:21:30;;;;;;;5.25;1.85;;;7.20;84.80;;;6.16;72.24;97492.94;5099516;28;20822;-78
2021/03/13 04:23:57;;;;;;;5.10;1.70;;;7.20;84.60;;;6.24;72.87;97497.88;5099951;28;20428;-78
2021/03/13 04:26:25;;;;;;;5.97;2.00;;;7.20;85.50;;;6.35;71.88;97505.03;5098798;28;20682;-78
2021/03/13 04:28:52;;;;;;;5.43;1.80;;;7.30;84.80;;;6.42;71.18;97505.75;5099134;28;20467;-78
2021/03/13 04:31:26;;;;;;;5.13;2.00;;;7.40;83.80;;;6.52;71.06;97494.72;5099780;28;20457;-78
2021/03/13 04:33:52;;;;;;;7.03;1.77;;;7.50;83.70;;;6.34;71.20;97492.09;5080178;28;20820;-78
2021/03/13 04:36:20;;;;;;;6.60;1.80;;;7.40;83.70;;;6.24;71.27;97487.34;5097780;28;20780;-78
2021/03/13 04:38:48;;;;;;;6.53;2.03;;;7.30;84.60;;;6.30;71.15;97485.69;5098605;28;20413;-77
2021/03/13 04:41:14;;;;;;;4.10;1.77;;;7.30;83.70;;;6.28;71.05;97483.28;5096869;28;20401;-78
2021/03/13 04:43:41;;;;;;;6.18;2.10;;;7.30;83.60;;;6.34;70.75;97485.03;5097151;28;20409;-79
2021/03/13 04:46:08;;;;;;;6.10;1.70;;;7.40;83.40;;;6.44;70.75;97492.38;5097272;28;20495;-78
2021/03/13 04:48:35;;;;;;;3.40;1.58;;;7.40;83.50;;;6.54;70.42;97482.16;5098901;28;20410;-78
2021/03/13 04:51:04;;;;;;;5.97;1.80;;;7.50;83.20;;;6.38;70.94;97475.69;5083772;28;20799;-78
2021/03/13 04:53:31;;;;;;;3.78;1.63;;;7.40;83.30;;;6.32;71.29;97471.28;5083072;28;20935;-78
2021/03/13 04:55:57;;;;;;;6.00;1.90;;;7.30;83.70;;;6.26;70.86;97477.44;5102541;28;20405;-78
2021/03/13 04:58:24;;;;;;;7.22;2.72;;;7.30;83.10;;;6.32;71.17;97473.91;5100713;28;20483;-79
2021/03/13 05:00:52;;;;;;;7.22;1.80;;;7.30;83.70;;;6.37;69.86;97476.69;5098955;28;20485;-78
2021/03/13 05:03:18;;;;;;;3.10;1.40;;;7.40;82.20;;;6.24;70.55;97458.44;5099737;28;20438;-78
2021/03/13 05:05:45;;;;;;;7.30;1.63;;;7.30;82.60;;;6.22;70.81;97457.88;5081405;28;20796;-79
2021/03/13 05:08:11;;;;;;;5.72;1.90;;;7.30;83.00;;;6.18;70.97;97462.75;5099749;28;20445;-78
2021/03/13 05:10:38;;;;;;;4.75;1.73;;;7.20;83.30;;;6.22;70.42;97457.88;5099489;28;20468;-78
2021/03/13 05:13:04;;;;;;;5.10;1.83;;;7.20;82.60;;;6.32;69.92;97452.88;5099184;28;20419;-78
2021/03/13 05:15:30;;;;;;;3.17;1.65;;;7.40;82.30;;;6.41;69.92;97443.66;5099612;28;20410;-78
2021/03/13 05:17:56;;;;;;;5.70;1.65;;;7.40;83.00;;;6.43;69.55;97449.50;5099126;28;20406;-78
2021/03/13 05:20:23;;;;;;;4.20;1.80;;;7.40;81.70;;;6.34;69.73;97445.59;5099458;28;20409;-78
2021/03/13 05:22:51;;;;;;;2.70;1.48;;;7.40;81.60;;;6.56;68.48;97451.97;5099551;28;20819;-78
2021/03/13 05:25:18;;;;;;;4.57;1.70;;;7.50;81.00;;;6.67;67.64;97439.06;5099104;28;20410;-78
2021/03/13 05:27:44;;;;;;;3.22;1.55;;;7.60;79.90;;;6.59;67.32;97433.13;5099809;28;20437;-78
2021/03/13 05:30:14;;;;;;;4.25;1.67;;;7.60;79.40;;;6.60;67.76;97441.81;5100099;28;20425;-78
2021/03/13 05:32:40;;;;;;;2.65;1.40;;;7.60;79.70;;;6.65;67.32;97433.22;5099783;28;20471;-78
2021/03/13 05:35:09;;;;;;;6.03;1.60;;;7.70;79.20;;;6.70;66.59;97436.78;5081825;28;20406;-78
2021/03/13 05:37:38;;;;;;;5.18;1.70;;;7.70;78.60;;;6.76;67.22;97435.91;5082707;28;20472;-78
2021/03/13 05:40:07;;;;;;;4.35;1.58;;;7.70;79.00;;;6.77;66.94;97439.31;5107493;28;20450;-78
2021/03/13 05:42:36;;;;;;;5.40;1.60;;;7.70;79.10;;;6.76;66.92;97435.91;5097995;28;20412;-78
2021/03/13 05:45:06;;;;;;;4.13;1.60;;;7.80;79.00;;;6.73;66.49;97425.81;5098338;28;20412;-78
2021/03/13 05:47:33;;;;;;;3.95;1.38;;;7.80;78.30;;;6.90;66.28;97428.63;5096399;28;20791;-78
2021/03/13 05:50:05;;;;;;;6.22;1.48;;;7.80;78.20;;;6.88;65.54;97420.94;5096672;28;20883;-78
2021/03/13 05:52:34;;;;;;;4.70;1.73;;;7.90;77.70;;;7.06;65.25;97416.63;5096565;28;20410;-79
2021/03/13 05:55:04;;;;;;;3.97;1.50;;;8.00;77.10;;;6.96;65.39;97420.59;5096960;28;20788;-78
2021/03/13 05:57:31;;;;;;;4.82;1.55;;;8.00;77.10;;;7.17;64.55;97415.81;5097148;28;20417;-78
2021/03/13 05:59:58;;;;;;;4.40;1.70;;;8.10;76.40;;;7.06;64.94;97406.91;5096786;28;20394;-78
2021/03/13 06:02:24;;;;;;;7.22;1.90;;;8.10;76.60;;;7.03;64.59;97402.06;5097458;28;20508;-78
2021/03/13 06:04:52;;;;;;;5.20;1.70;;;8.10;75.90;;;7.08;64.56;97385.59;5097026;28;20398;-78
2021/03/13 06:07:20;;;;;;;4.95;1.70;;;8.10;76.00;;;7.05;64.37;97375.53;5097964;28;20414;-78
2021/03/13 06:09:50;;;;;;;4.25;1.50;;;8.10;75.70;;;7.15;64.39;97376.56;5095757;28;20577;-79
2021/03/13 06:12:21;;;;;;;4.20;1.60;;;8.10;75.90;;;6.95;64.87;97384.00;5098058;28;20810;-79
2021/03/13 06:14:48;;;;;;;3.88;1.67;;;8.00;76.10;;;6.95;64.81;97387.44;5081903;28;20804;-79
2021/03/13 06:17:15;;;;;;;5.57;1.80;;;8.00;76.40;;;7.01;64.93;97388.34;5097511;28;20409;-79
2021/03/13 06:19:50;;;;;;;6.43;1.60;;;8.00;76.40;;;7.15;64.55;97383.66;5097333;28;20773;-79
2021/03/13 06:22:38;;;;;;;6.25;1.77;;;8.10;76.20;;;7.13;64.24;97386.53;5096923;28;20516;-80
2021/03/13 06:25:26;;;;;;;6.47;2.00;;;8.10;75.50;;;7.21;63.07;97375.66;5096778;28;20871;-80
2021/03/13 06:28:12;;;;;;;5.60;1.73;;;8.20;74.50;;;7.36;62.76;97376.00;5096127;28;20482;-79
2021/03/13 06:30:42;;;;;;;7.43;1.65;;;8.20;74.20;;;7.42;62.75;97374.25;5095150;28;20441;-80
2021/03/13 06:33:23;;;;;;;5.85;1.80;;;8.40;74.20;;;7.30;62.72;97383.97;5096355;28;20437;-80
2021/03/13 06:35:50;;;;;;;7.15;1.90;;;8.30;73.80;;;7.48;62.85;97375.97;5097284;28;20417;-80
2021/03/13 06:38:18;;;;;;;5.28;2.10;;;8.40;74.10;;;7.44;63.16;97372.22;5095857;28;20422;-78
2021/03/13 06:40:45;;;;;;;8.65;1.90;;;8.40;74.40;;;7.45;62.24;97376.41;5095394;28;20417;-79
2021/03/13 06:43:26;;;;;;;3.83;1.63;;;8.40;73.60;;;7.54;61.91;97375.03;5096458;28;20414;-78
2021/03/13 06:46:05;;;;;;;5.72;2.20;;;8.50;72.80;;;7.66;61.61;97367.13;5098248;28;20398;-79
2021/03/13 06:48:38;;;;;;;8.18;2.30;;;8.60;72.50;;;7.72;61.11;97364.34;5096561;28;20838;-78
2021/03/13 06:51:27;;;;;;;7.45;1.60;;;8.60;72.20;;;7.79;60.44;97356.31;5096427;28;20446;-78
2021/03/13 06:54:04;;;;;;;5.82;1.90;;;8.70;71.40;;;7.77;60.10;97334.66;5098686;28;20410;-77
2021/03/13 06:56:32;;;;;;;8.15;1.90;;;8.80;71.00;;;7.86;60.92;97335.09;5100382;28;20900;-78
2021/03/13 06:59:01;;;;;;;5.53;1.77;;;8.80;72.50;;;7.87;59.96;97329.59;5100708;28;20402;-78
2021/03/13 07:01:30;;;;;;;6.43;2.05;;;8.80;70.70;;;7.92;59.76;97319.16;5096878;28;20398;-77
2021/03/13 07:03:57;;;;;;;6.60;1.55;;;8.90;70.50;;;8.02;59.39;97329.88;5095620;28;20440;-77
2021/03/13 07:06:24;;;;;;;4.07;1.92;;;9.00;70.00;;;8.11;58.73;97325.84;5095602;28;20436;-77
2021/03/13 07:08:52;;;;;;;5.32;1.52;;;9.10;69.50;;;8.15;58.64;97326.16;5078330;28;20437;-78
2021/03/13 07:11:22;;;;;;;9.30;1.90;;;9.10;69.00;;;8.27;57.75;97320.84;5096958;28;20480;-80
2021/03/13 07:13:51;;;;;;;9.35;1.70;;;9.20;68.30;;;8.40;57.63;97313.44;5097492;28;20449;-79
2021/03/13 07:16:40;;;;;;;3.90;1.55;;;9.30;67.90;;;8.28;57.87;97327.69;5079142;28;20425;-79
2021/03/13 07:19:09;;;;;;;4.65;1.80;;;9.30;68.00;;;8.41;57.34;97327.44;5091637;28;20517;-77
2021/03/13 07:21:37;;;;;;;5.70;2.00;;;9.30;67.60;;;8.37;57.31;97315.75;5095797;28;20823;-77
2021/03/13 07:24:06;;;;;;;7.18;1.50;;;9.30;67.30;;;8.39;57.36;97303.94;5096182;28;20498;-78
2021/03/13 07:26:36;;;;;;;5.20;1.58;;;9.30;67.60;;;8.43;56.66;97297.13;5096224;28;20467;-78
2021/03/13 07:29:06;;;;;;;6.30;1.93;;;9.40;66.50;;;8.44;56.24;97290.81;5097235;28;20470;-78
2021/03/13 07:31:36;;;;;;;4.90;1.80;;;9.50;65.70;;;8.48;55.95;97276.13;5100280;28;20504;-79
2021/03/13 07:34:08;;;;;;;3.10;1.50;;;9.50;65.70;;;8.58;55.80;97287.84;5099502;28;20505;-78
2021/03/13 07:36:38;;;;;;;5.03;1.58;;;9.50;65.60;;;8.61;55.57;97285.53;5099193;28;20413;-78
2021/03/13 07:39:15;;;;;;;7.35;1.40;;;9.50;65.20;;;8.74;55.22;97287.84;5096312;28;20450;-78
2021/03/13 07:41:52;;;;;;;4.45;1.50;;;9.60;65.00;;;8.83;54.88;97278.50;5097134;28;20513;-78
2021/03/13 07:44:19;;;;;;;4.47;1.47;;;9.80;64.10;;;8.88;53.96;97288.31;5099403;28;20898;-78
2021/03/13 07:46:50;;;;;;;3.87;1.53;;;9.80;63.80;;;8.91;54.04;97264.88;5081052;28;20422;-78
2021/03/13 07:49:18;;;;;;;4.80;1.42;;;9.80;63.00;;;8.88;53.81;97275.13;5099670;28;20886;-78
2021/03/13 07:51:44;;;;;;;7.75;1.90;;;9.80;62.50;;;9.15;53.43;97270.75;5100021;28;20462;-78
2021/03/13 07:54:11;;;;;;;6.40;2.38;;;10.00;62.70;;;9.33;52.66;97265.16;5098206;28;20658;-78
2021/03/13 07:56:40;;;;;;;2.97;1.52;;;10.20;62.20;;;9.42;52.31;97267.38;5100618;28;20398;-78
2021/03/13 07:59:09;;;;;;;4.33;1.33;;;10.30;61.00;;;9.40;51.94;97259.69;5099664;28;20409;-79
2021/03/13 08:01:50;;;;;;;3.60;1.27;;;10.30;60.40;;;9.27;51.42;97265.34;5098785;28;20722;-79
2021/03/13 08:04:56;;;;;;;3.13;1.27;;;10.20;59.50;;;9.10;52.37;97254.81;5081575;28;20547;-77
2021/03/13 08:07:23;;;;;;;6.25;1.75;;;10.10;60.30;;;9.11;52.13;97256.41;5098968;28;20580;-79
2021/03/13 08:09:49;;;;;;;4.85;1.30;;;10.00;60.50;;;9.02;52.14;97254.47;5084206;28;20449;-80
2021/03/13 08:12:38;;;;;;;5.20;1.40;;;10.00;60.40;;;8.98;52.92;97240.13;5102914;28;20418;-79
2021/03/13 08:15:33;;;;;;;4.65;1.20;;;9.90;61.10;;;8.95;52.07;97259.13;5100850;28;20413;-80
2021/03/13 08:18:00;;;;;;;6.00;1.40;;;9.90;60.30;;;9.04;51.28;97213.56;5100415;28;20829;-79
2021/03/13 08:20:30;;;;;;;5.07;1.38;;;9.90;59.80;;;9.04;51.49;97220.69;5099707;28;20471;-79
2021/03/13 08:23:20;;;;;;;2.53;1.20;;;9.90;59.80;;;9.04;51.31;97225.97;5098834;28;20826;-78
2021/03/13 08:25:54;;;;;;;2.90;1.30;;;10.00;59.50;;;9.02;51.36;97215.63;5098723;28;20715;-77
2021/03/13 08:28:56;;;;;;;4.03;1.50;;;9.90;60.50;;;9.13;50.89;97219.22;5099359;28;20454;-75
2021/03/13 08:31:36;;;;;;;3.35;1.30;;;10.00;59.80;;;9.03;51.04;97197.97;5099513;28;20421;-79
2021/03/13 08:34:40;;;;;;;6.80;1.40;;;10.00;59.10;;;8.92;51.41;97220.81;5096385;28;20448;-79
2021/03/13 08:37:17;;;;;;;3.40;1.20;;;9.90;59.60;;;9.01;50.33;97200.06;5098271;28;20461;-79
2021/03/13 08:39:44;;;;;;;4.28;1.60;;;9.90;58.50;;;9.07;50.63;97193.78;5116736;28;20404;-82
2021/03/13 08:42:26;;;;;;;3.67;1.20;;;10.00;58.90;;;9.27;49.65;97205.41;5121578;28;20407;-84
2021/03/13 08:45:13;;;;;;;2.08;1.20;;;10.10;58.20;;;9.45;49.19;97204.28;5118779;28;20827;-82
2021/03/13 08:47:44;;;;;;;4.95;1.27;;;10.20;57.40;;;10.05;47.41;97196.13;5118154;28;20588;-84
2021/03/13 08:50:11;;;;;;;3.67;1.10;;;10.70;56.50;;;10.30;45.75;97211.44;5121721;28;20466;-83
2021/03/13 08:52:39;;;;;;;7.33;1.80;;;11.10;55.00;;;10.27;47.13;97203.22;5120015;28;20415;-83
2021/03/13 08:55:07;;;;;;;5.30;1.20;;;11.10;55.30;;;9.96;46.70;97173.84;5119614;28;20408;-82
2021/03/13 08:57:44;;;;;;;4.70;1.45;;;10.90;54.50;;;9.85;46.94;97193.28;5120161;28;20460;-79
2021/03/13 09:00:16;;;;;;;3.97;1.20;;;10.80;54.90;;;9.93;47.19;97161.13;5119162;28;20454;-79
2021/03/13 09:02:47;;;;;;;5.20;1.35;;;10.80;55.20;;;9.99;46.67;97151.41;5119874;28;20404;-79
2021/03/13 09:05:17;;;;;;;5.50;1.25;;;10.80;55.10;;;9.98;46.56;97157.72;5120353;28;20504;-80
2021/03/13 09:07:51;;;;;;;2.42;1.20;;;10.90;54.70;;;9.95;46.88;97147.66;5119320;28;20416;-79
2021/03/13 09:10:18;;;;;;;4.75;1.30;;;10.90;54.90;;;9.89;46.65;97140.72;5118733;28;20430;-79
2021/03/13 09:12:46;;;;;;;4.03;1.60;;;10.80;54.60;;;9.96;46.64;97144.75;5118654;28;20412;-79
2021/03/13 09:15:15;;;;;;;3.65;1.45;;;10.80;54.70;;;10.00;46.48;97135.25;5099749;28;20412;-80
2021/03/13 09:17:42;;;;;;;3.47;1.30;;;10.90;54.60;;;9.98;46.24;97149.81;5118233;28;20731;-80
2021/03/13 09:20:11;;;;;;;5.68;1.63;;;10.90;54.40;;;9.95;46.46;97111.44;5119574;28;20837;-80
2021/03/13 09:22:40;;;;;;;3.85;1.35;;;10.80;54.30;;;10.04;46.45;97103.81;5119111;28;20462;-80
2021/03/13 09:25:11;;;;;;;4.97;1.45;;;10.90;54.30;;;9.96;45.99;97128.09;5101681;28;20424;-80
2021/03/13 09:27:38;;;;;;;3.97;1.45;;;10.90;54.10;;;10.08;45.66;97096.97;5120034;28;20416;-80
2021/03/13 09:30:11;;;;;;;4.43;1.48;;;11.00;53.80;;;10.31;45.32;97109.84;5118369;28;20428;-79
2021/03/13 09:32:45;;;;;;;3.13;1.40;;;11.10;53.80;;;10.23;45.42;97105.03;5100971;28;20420;-79
2021/03/13 09:35:12;;;;;;;5.50;1.35;;;11.10;53.30;;;10.26;45.31;97093.94;5118544;28;20722;-79
2021/03/13 09:37:42;;;;;;;3.77;1.20;;;11.20;53.30;;;10.46;44.97;97093.25;5118813;28;20444;-79
2021/03/13 09:40:12;;;;;;;3.55;1.20;;;11.30;53.10;;;10.55;44.28;97082.97;5100744;28;20516;-79
2021/03/13 09:42:42;;;;;;;3.25;1.20;;;11.40;52.40;;;10.47;45.00;97084.25;5119060;28;20555;-79
2021/03/13 09:45:11;;;;;;;8.02;1.58;;;11.40;52.60;;;10.36;45.10;97083.44;5119093;28;20809;-79
2021/03/13 09:47:40;;;;;;;5.80;1.40;;;11.30;52.90;;;10.52;44.86;97086.16;5118498;28;20468;-79
2021/03/13 09:50:09;;;;;;;4.83;1.30;;;11.30;53.30;;;10.68;44.39;97087.78;5118080;28;20679;-80
2021/03/13 09:52:40;;;;;;;4.05;1.20;;;11.50;52.40;;;10.83;44.11;97091.31;5118683;28;20440;-79
2021/03/13 09:55:11;;;;;;;5.45;1.40;;;11.70;52.30;;;10.85;43.91;97091.84;5117199;28;20728;-80
2021/03/13 09:57:40;;;;;;;3.63;1.40;;;11.70;51.90;;;10.67;44.67;97081.72;5099901;28;20459;-82
2021/03/13 10:00:12;;;;;;;5.65;1.30;;;11.50;52.50;;;10.80;44.19;97091.84;5117627;28;20400;-80
2021/03/13 10:02:40;;;;;;;3.22;1.40;;;11.70;52.20;;;10.87;44.50;97067.75;5116420;28;20467;-81
2021/03/13 10:05:12;;;;;;;2.25;1.40;;;11.70;52.40;;;10.73;44.29;97074.59;5115755;28;20468;-80
2021/03/13 10:07:40;;;;;;;4.38;1.10;;;11.70;52.00;;;10.75;44.43;97062.69;5116933;28;20787;-81
2021/03/13 10:10:10;;;;;;;4.20;1.20;;;11.60;52.30;;;10.63;44.50;97066.59;5117460;28;20416;-80
2021/03/13 10:12:43;;;;;;;3.08;1.20;;;11.60;52.40;;;10.54;45.19;97062.84;5115963;28;20483;-81
2021/03/13 10:15:22;;;;;;;3.20;1.20;;;11.50;52.80;;;10.48;45.40;97056.75;5117411;28;20472;-82
2021/03/13 10:17:58;;;;;;;6.13;1.25;;;11.40;53.00;;;10.40;45.57;97057.25;5117351;28;20883;-82
2021/03/13 10:20:29;;;;;;;2.60;1.50;;;11.30;53.10;;;10.34;45.63;97056.44;5117371;28;20463;-80
2021/03/13 10:23:02;;;;;;;3.38;1.00;;;11.30;53.30;;;10.40;45.36;97051.94;5120336;28;20519;-81
2021/03/13 10:25:29;;;;;;;2.28;1.38;;;11.30;53.30;;;10.39;45.36;97045.06;5117570;28;20451;-82
2021/03/13 10:28:06;;;;;;;2.50;1.10;;;11.30;53.10;;;10.46;45.15;97053.56;5098586;28;20412;-82
2021/03/13 10:30:36;;;;;;;1.90;1.33;;;11.30;53.30;;;10.48;45.64;97069.97;5117018;28;20471;-83
2021/03/13 10:33:03;;;;;;;6.30;1.40;;;11.40;53.40;;;10.51;45.72;97052.81;5117905;28;20455;-81
2021/03/13 10:35:33;;;;;;;3.05;1.10;;;11.40;53.30;;;10.49;45.54;97037.19;5116994;28;20896;-82
2021/03/13 10:38:01;;;;;;;2.00;1.20;;;11.40;53.30;;;10.42;45.33;97039.28;5105377;28;20452;-80
2021/03/13 10:40:39;;;;;;;3.37;1.70;;;11.30;53.00;;;10.40;45.42;97033.44;5118681;28;20474;-80
2021/03/13 10:43:24;;;;;;;6.13;1.65;;;11.30;53.20;;;10.43;45.55;97054.09;5099703;28;20464;-80